Terminal Aerodrome Forecast
Issued by NWS Cleveland, OH

Home | Current Version | Previous Version | Text Only | Print | Product List | Glossary Off
Versions: 1 2 3 4 5 6 7 8 9 10 11 12 13 14

000
FTUS41 KCLE 102300
TAFCAK
TAF
KCAK 102320Z 1100/1124 01006KT P6SM SCT060 BKN100
     FM110200 04004KT P6SM SKC
      TEMPO 1106/1109 4SM BR
     FM110900 VRB03KT 4SM BR SKC
      TEMPO 1109/1113 2SM BR
     FM111300 VRB03KT P6SM SKC
     FM111800 14005KT P6SM SCT050=

USA.gov is the U.S. government's official web portal to all federal, state and local government web resources and services.